Attraction — EA4860 — position and weather

sailwx.info

Track history (hours):
 
Tides and Currents Weather Stations Pressure Air Temp Water Temp Dewpoint Dewpoint Depression Visibility Wind Speed Wind Dir Waves Ship Positions

Attraction

Last reported at 2017-Oct-17 19:09 UTC. Time now 2017-Oct-20 05:27 UTC.
Position N 39°34' E 002°38'.

Length 23 m.

Type: Passenger vessel. MMSI: 224006670.

Date/timePositionNaut miles runAvg speedWind from/ knotsBaromVisibWave heightAir tempDewpointWater temp
2017-Oct-17 19:09N 39°34' E 002°38'1 4.5
2017-Oct-17 19:00N 39°33' E 002°38'4 7.0
2017-Oct-17 18:30N 39°32' E 002°34'0 0.6
2017-Oct-17 17:53N 39°32' E 002°34'2 6.1
2017-Oct-17 17:30N 39°32' E 002°37'2 3.8
2017-Oct-17 17:00N 39°34' E 002°38'  
2017-Oct-15 12:11N 39°34' E 002°38'1 2.9
2017-Oct-15 12:00N 39°34' E 002°38'2 4.5
2017-Oct-15 11:30N 39°32' E 002°40'4 8.0
2017-Oct-15 11:00N 39°29' E 002°43'2 3.3
2017-Oct-15 10:30N 39°27' E 002°44'0 0.0
2017-Oct-15 09:54N 39°27' E 002°44'0 0.0
2017-Oct-15 09:30N 39°27' E 002°44'1 1.4
2017-Oct-15 09:00N 39°28' E 002°44'3 5.9
2017-Oct-15 08:30N 39°31' E 002°44'2 4.2
2017-Oct-15 08:00N 39°32' E 002°42'4 7.1
2017-Oct-15 07:30N 39°34' E 002°38'0 0.2
2017-Oct-15 06:59N 39°34' E 002°38'  
2017-Oct-12 11:54N 39°34' E 002°38'3 6.4
2017-Oct-12 11:30N 39°32' E 002°40'4 8.2
2017-Oct-12 11:00N 39°29' E 002°43'2 2.9
2017-Oct-12 10:28N 39°27' E 002°44'0 0.0
2017-Oct-12 09:58N 39°27' E 002°44'0 0.0
2017-Oct-12 09:25N 39°27' E 002°44'0 0.0
2017-Oct-12 08:58N 39°27' E 002°44'2 4.8
2017-Oct-12 08:30N 39°30' E 002°44'2 4.9
2017-Oct-12 08:00N 39°32' E 002°43'3 6.9
2017-Oct-12 07:30N 39°33' E 002°39'1 2.2
2017-Oct-12 06:58N 39°34' E 002°38'  
2017-Oct-08 14:09N 39°34' E 002°38'0 0.0
2017-Oct-08 14:00N 39°34' E 002°38'0 0.0
2017-Oct-08 13:30N 39°34' E 002°38'0 0.0
2017-Oct-08 13:00N 39°34' E 002°38'1 1.2
2017-Oct-08 12:30N 39°33' E 002°38'3 5.7
2017-Oct-08 12:00N 39°32' E 002°35'2 1.3
2017-Oct-08 10:51N 39°31' E 002°33'2 7.3
2017-Oct-08 10:31N 39°29' E 002°32'1 1.4
2017-Oct-08 09:51N 39°28' E 002°31'1 1.6
2017-Oct-08 09:29N 39°29' E 002°32'5 9.9
2017-Oct-08 09:00N 39°32' E 002°37'2 4.7
2017-Oct-08 08:30N 39°34' E 002°38'0 0.0
2017-Oct-08 08:00N 39°34' E 002°38'0 0.0
2017-Oct-08 07:30N 39°34' E 002°38'0 0.0
2017-Oct-08 07:00N 39°34' E 002°38'0 0.0
2017-Oct-08 06:30N 39°34' E 002°38'0 0.0
2017-Oct-08 06:00N 39°34' E 002°38'0 0.0
2017-Oct-08 05:30N 39°34' E 002°38'0 0.0
2017-Oct-08 05:00N 39°34' E 002°38'0 0.0
2017-Oct-08 04:30N 39°34' E 002°38'0 0.0
2017-Oct-08 04:00N 39°34' E 002°38'0 0.0
2017-Oct-08 03:30N 39°34' E 002°38'0 0.0
2017-Oct-08 03:00N 39°34' E 002°38'0 0.0
2017-Oct-08 02:30N 39°34' E 002°38'0 0.0
2017-Oct-08 02:00N 39°34' E 002°38'0 0.0
2017-Oct-08 01:30N 39°34' E 002°38'0 0.0
2017-Oct-08 01:00N 39°34' E 002°38'0 0.0
2017-Oct-08 00:30N 39°34' E 002°38'0 0.0
2017-Oct-08 00:00N 39°34' E 002°38'0 0.0
2017-Oct-07 23:30N 39°34' E 002°38'0 0.0
2017-Oct-07 23:00N 39°34' E 002°38'0 0.0
2017-Oct-07 22:30N 39°34' E 002°38'0 0.0
2017-Oct-07 22:00N 39°34' E 002°38'0 0.0
2017-Oct-07 21:30N 39°34' E 002°38'0 0.0
2017-Oct-07 21:00N 39°34' E 002°38'0 0.0
2017-Oct-07 20:30N 39°34' E 002°38'0 0.0
2017-Oct-07 20:00N 39°34' E 002°38'0 0.0
2017-Oct-07 19:30N 39°34' E 002°38'  
Track history (hours):
 
Tides and Currents Weather Stations Pressure Air Temp Water Temp Dewpoint Dewpoint Depression Visibility Wind Speed Wind Dir Waves Ship Positions

Attraction

Last reported at 2017-Oct-17 19:09 UTC. Time now 2017-Oct-20 05:27 UTC.
Position N 39°34' E 002°38'.

Length 23 m.

Type: Passenger vessel. MMSI: 224006670.

Date/timePositionNaut miles runAvg speedWind from/ knotsBaromVisibWave heightAir tempDewpointWater temp
2017-Oct-17 19:09N 39°34' E 002°38'1 4.5
2017-Oct-17 19:00N 39°33' E 002°38'4 7.0
2017-Oct-17 18:30N 39°32' E 002°34'0 0.6
2017-Oct-17 17:53N 39°32' E 002°34'2 6.1
2017-Oct-17 17:30N 39°32' E 002°37'2 3.8
2017-Oct-17 17:00N 39°34' E 002°38'  
2017-Oct-15 12:11N 39°34' E 002°38'1 2.9
2017-Oct-15 12:00N 39°34' E 002°38'2 4.5
2017-Oct-15 11:30N 39°32' E 002°40'4 8.0
2017-Oct-15 11:00N 39°29' E 002°43'2 3.3
2017-Oct-15 10:30N 39°27' E 002°44'0 0.0
2017-Oct-15 09:54N 39°27' E 002°44'0 0.0
2017-Oct-15 09:30N 39°27' E 002°44'1 1.4
2017-Oct-15 09:00N 39°28' E 002°44'3 5.9
2017-Oct-15 08:30N 39°31' E 002°44'2 4.2
2017-Oct-15 08:00N 39°32' E 002°42'4 7.1
2017-Oct-15 07:30N 39°34' E 002°38'0 0.2
2017-Oct-15 06:59N 39°34' E 002°38'  
2017-Oct-12 11:54N 39°34' E 002°38'3 6.4
2017-Oct-12 11:30N 39°32' E 002°40'4 8.2
2017-Oct-12 11:00N 39°29' E 002°43'2 2.9
2017-Oct-12 10:28N 39°27' E 002°44'0 0.0
2017-Oct-12 09:58N 39°27' E 002°44'0 0.0
2017-Oct-12 09:25N 39°27' E 002°44'0 0.0
2017-Oct-12 08:58N 39°27' E 002°44'2 4.8
2017-Oct-12 08:30N 39°30' E 002°44'2 4.9
2017-Oct-12 08:00N 39°32' E 002°43'3 6.9
2017-Oct-12 07:30N 39°33' E 002°39'1 2.2
2017-Oct-12 06:58N 39°34' E 002°38'  
2017-Oct-08 14:09N 39°34' E 002°38'0 0.0
2017-Oct-08 14:00N 39°34' E 002°38'0 0.0
2017-Oct-08 13:30N 39°34' E 002°38'0 0.0
2017-Oct-08 13:00N 39°34' E 002°38'1 1.2
2017-Oct-08 12:30N 39°33' E 002°38'3 5.7
2017-Oct-08 12:00N 39°32' E 002°35'2 1.3
2017-Oct-08 10:51N 39°31' E 002°33'2 7.3
2017-Oct-08 10:31N 39°29' E 002°32'1 1.4
2017-Oct-08 09:51N 39°28' E 002°31'1 1.6
2017-Oct-08 09:29N 39°29' E 002°32'5 9.9
2017-Oct-08 09:00N 39°32' E 002°37'2 4.7
2017-Oct-08 08:30N 39°34' E 002°38'0 0.0
2017-Oct-08 08:00N 39°34' E 002°38'0 0.0
2017-Oct-08 07:30N 39°34' E 002°38'0 0.0
2017-Oct-08 07:00N 39°34' E 002°38'0 0.0
2017-Oct-08 06:30N 39°34' E 002°38'0 0.0
2017-Oct-08 06:00N 39°34' E 002°38'0 0.0
2017-Oct-08 05:30N 39°34' E 002°38'0 0.0
2017-Oct-08 05:00N 39°34' E 002°38'0 0.0
2017-Oct-08 04:30N 39°34' E 002°38'0 0.0
2017-Oct-08 04:00N 39°34' E 002°38'0 0.0
2017-Oct-08 03:30N 39°34' E 002°38'0 0.0
2017-Oct-08 03:00N 39°34' E 002°38'0 0.0
2017-Oct-08 02:30N 39°34' E 002°38'0 0.0
2017-Oct-08 02:00N 39°34' E 002°38'0 0.0
2017-Oct-08 01:30N 39°34' E 002°38'0 0.0
2017-Oct-08 01:00N 39°34' E 002°38'0 0.0
2017-Oct-08 00:30N 39°34' E 002°38'0 0.0
2017-Oct-08 00:00N 39°34' E 002°38'0 0.0
2017-Oct-07 23:30N 39°34' E 002°38'0 0.0
2017-Oct-07 23:00N 39°34' E 002°38'0 0.0
2017-Oct-07 22:30N 39°34' E 002°38'0 0.0
2017-Oct-07 22:00N 39°34' E 002°38'0 0.0
2017-Oct-07 21:30N 39°34' E 002°38'0 0.0
2017-Oct-07 21:00N 39°34' E 002°38'0 0.0
2017-Oct-07 20:30N 39°34' E 002°38'0 0.0
2017-Oct-07 20:00N 39°34' E 002°38'0 0.0
2017-Oct-07 19:30N 39°34' E 002°38'  

Dump ship's entire track history